createdAt,value
2016-09-04T00:00:49.665Z,0
2016-09-04T00:01:49.663Z,0
2016-09-04T00:02:49.663Z,0
2016-09-04T00:03:49.664Z,0
2016-09-04T00:04:49.734Z,0
2016-09-04T00:05:49.677Z,0
2016-09-04T00:06:49.670Z,0
2016-09-04T00:07:49.678Z,0
2016-09-04T00:08:50.385Z,0
2016-09-04T00:09:49.700Z,0
2016-09-04T00:10:49.686Z,0
2016-09-04T00:11:49.674Z,0
2016-09-04T00:12:49.681Z,0
2016-09-04T00:13:50.396Z,0
2016-09-04T00:14:49.697Z,0
2016-09-04T00:15:49.706Z,0
2016-09-04T00:16:49.696Z,0
2016-09-04T00:17:49.693Z,0
2016-09-04T00:18:49.701Z,0
2016-09-04T00:19:49.698Z,0
2016-09-04T00:20:49.703Z,0
2016-09-04T00:21:49.722Z,0
2016-09-04T00:22:49.698Z,0
2016-09-04T00:23:49.703Z,0
2016-09-04T00:24:49.733Z,0
2016-09-04T00:25:49.739Z,0
2016-09-04T00:26:49.719Z,0
2016-09-04T00:27:49.735Z,0
2016-09-04T00:28:50.438Z,0
2016-09-04T00:29:49.732Z,0
2016-09-04T00:30:49.764Z,0
2016-09-04T00:31:49.737Z,0
2016-09-04T00:32:49.743Z,0
2016-09-04T00:33:49.745Z,0
2016-09-04T00:34:49.751Z,0
2016-09-04T00:35:49.759Z,0
2016-09-04T00:36:49.747Z,0
2016-09-04T00:37:49.750Z,0
2016-09-04T00:38:49.743Z,0
2016-09-04T00:39:49.748Z,0
2016-09-04T00:40:49.756Z,0
2016-09-04T00:41:49.754Z,0
2016-09-04T00:42:49.760Z,0
2016-09-04T00:43:49.758Z,0
2016-09-04T00:44:49.752Z,0
2016-09-04T00:45:49.764Z,0
2016-09-04T00:46:49.766Z,0
2016-09-04T00:47:49.751Z,0
2016-09-04T00:48:50.474Z,0
2016-09-04T00:49:49.782Z,0
2016-09-04T00:50:49.777Z,0
2016-09-04T00:51:49.770Z,0
2016-09-04T00:52:49.762Z,0
2016-09-04T00:53:49.775Z,0
2016-09-04T00:54:49.778Z,0
2016-09-04T00:55:49.776Z,0
2016-09-04T00:56:49.780Z,0
2016-09-04T00:57:49.777Z,0
2016-09-04T00:58:49.784Z,0
2016-09-04T00:59:49.774Z,0
2016-09-04T01:00:49.794Z,0
2016-09-04T01:01:49.797Z,0
2016-09-04T01:02:49.792Z,0
2016-09-04T01:03:49.782Z,0
2016-09-04T01:04:49.853Z,0
2016-09-04T01:05:49.850Z,0
2016-09-04T01:06:49.858Z,0
2016-09-04T01:07:49.872Z,0
2016-09-04T01:08:49.809Z,0
2016-09-04T01:09:49.801Z,0
2016-09-04T01:10:49.809Z,0
2016-09-04T01:11:49.800Z,0
2016-09-04T01:12:49.811Z,0
2016-09-04T01:13:49.800Z,0
2016-09-04T01:14:49.842Z,0
2016-09-04T01:15:49.880Z,0
2016-09-04T01:16:49.818Z,0
2016-09-04T01:17:49.852Z,0
2016-09-04T01:18:49.832Z,0
2016-09-04T01:19:49.847Z,0
2016-09-04T01:20:49.865Z,0
2016-09-04T01:21:49.836Z,0
2016-09-04T01:22:49.846Z,0
2016-09-04T01:23:49.850Z,0
2016-09-04T01:24:49.847Z,0
2016-09-04T01:25:49.851Z,0
2016-09-04T01:26:49.853Z,0
2016-09-04T01:27:49.851Z,0
2016-09-04T01:28:49.850Z,0
2016-09-04T01:29:49.854Z,0
2016-09-04T01:30:49.857Z,0
2016-09-04T01:31:49.855Z,0
2016-09-04T01:32:49.854Z,0
2016-09-04T01:33:49.851Z,0
2016-09-04T01:34:49.861Z,0
2016-09-04T01:35:49.878Z,0
2016-09-04T01:36:49.861Z,0
2016-09-04T01:37:49.856Z,0
2016-09-04T01:38:49.857Z,0
2016-09-04T01:39:49.864Z,0
2016-09-04T01:40:49.871Z,0
2016-09-04T01:41:49.916Z,0
2016-09-04T01:42:49.920Z,0
2016-09-04T01:43:49.864Z,0
2016-09-04T01:44:50.554Z,0
2016-09-04T01:45:49.893Z,0
2016-09-04T01:46:49.861Z,0
2016-09-04T01:47:49.864Z,0
2016-09-04T01:48:49.867Z,0
2016-09-04T01:49:49.862Z,0
2016-09-04T01:50:49.874Z,0
2016-09-04T01:51:49.881Z,0
2016-09-04T01:52:49.878Z,0
2016-09-04T01:53:49.881Z,0
2016-09-04T01:54:49.880Z,0
2016-09-04T01:55:49.900Z,0
2016-09-04T01:56:49.883Z,0
2016-09-04T01:57:49.881Z,0
2016-09-04T01:58:49.891Z,0
2016-09-04T01:59:49.884Z,0
2016-09-04T02:00:49.903Z,0
2016-09-04T02:01:49.887Z,0
2016-09-04T02:02:49.893Z,0
2016-09-04T02:03:49.886Z,0
2016-09-04T02:04:49.895Z,0
2016-09-04T02:05:49.905Z,0
2016-09-04T02:06:49.889Z,0
2016-09-04T02:07:50.610Z,0
2016-09-04T02:08:49.894Z,0
2016-09-04T02:09:50.609Z,0
2016-09-04T02:10:49.931Z,0
2016-09-04T02:11:49.917Z,0
2016-09-04T02:12:49.929Z,0
2016-09-04T02:13:49.931Z,0
2016-09-04T02:14:49.913Z,0
2016-09-04T02:15:49.945Z,0
2016-09-04T02:16:49.965Z,0
2016-09-04T02:17:50.692Z,0
2016-09-04T02:18:49.938Z,0
2016-09-04T02:19:49.905Z,0
2016-09-04T02:20:49.923Z,0
2016-09-04T02:21:49.933Z,0
2016-09-04T02:22:49.937Z,0
2016-09-04T02:23:49.935Z,0
2016-09-04T02:24:49.937Z,0
2016-09-04T02:25:49.937Z,0
2016-09-04T02:26:49.937Z,0
2016-09-04T02:27:49.940Z,0
2016-09-04T02:28:49.940Z,0
2016-09-04T02:29:49.941Z,0
2016-09-04T02:30:49.952Z,0
2016-09-04T02:31:49.940Z,0
2016-09-04T02:32:49.947Z,0
2016-09-04T02:33:49.948Z,0
2016-09-04T02:34:49.942Z,0
2016-09-04T02:35:49.953Z,0
2016-09-04T02:36:49.946Z,0
2016-09-04T02:37:49.952Z,0
2016-09-04T02:38:49.952Z,0
2016-09-04T02:39:49.949Z,0
2016-09-04T02:40:49.975Z,0
2016-09-04T02:41:49.949Z,0
2016-09-04T02:42:49.943Z,0
2016-09-04T02:43:49.956Z,0
2016-09-04T02:44:49.953Z,0
2016-09-04T02:45:49.959Z,0
2016-09-04T02:46:49.955Z,0
2016-09-04T02:47:49.959Z,0
2016-09-04T02:48:49.952Z,0
2016-09-04T02:49:49.990Z,0
2016-09-04T02:50:50.026Z,0
2016-09-04T02:51:50.044Z,0
2016-09-04T02:52:49.965Z,0
2016-09-04T02:53:49.956Z,0
2016-09-04T02:54:49.966Z,0
2016-09-04T02:55:49.968Z,0
2016-09-04T02:56:50.674Z,0
2016-09-04T02:57:49.979Z,0
2016-09-04T02:58:49.966Z,0
2016-09-04T02:59:49.981Z,0
2016-09-04T03:00:50.003Z,0
2016-09-04T03:01:49.985Z,0
2016-09-04T03:02:49.971Z,0
2016-09-04T03:03:49.981Z,0
2016-09-04T03:04:50.019Z,0
2016-09-04T03:05:49.986Z,0
2016-09-04T03:06:49.987Z,0
2016-09-04T03:07:49.984Z,0
2016-09-04T03:08:50.000Z,0
2016-09-04T03:09:49.985Z,0
2016-09-04T03:10:49.991Z,0
2016-09-04T03:11:49.989Z,0
2016-09-04T03:12:49.986Z,0
2016-09-04T03:13:49.991Z,0
2016-09-04T03:14:49.992Z,0
2016-09-04T03:15:50.018Z,0
2016-09-04T03:16:49.993Z,0
2016-09-04T03:17:49.989Z,0
2016-09-04T03:18:49.999Z,0
2016-09-04T03:19:49.995Z,0
2016-09-04T03:20:50.004Z,0
2016-09-04T03:21:49.996Z,0
2016-09-04T03:22:49.998Z,0
2016-09-04T03:23:50.703Z,0
2016-09-04T03:24:50.003Z,0
2016-09-04T03:25:50.011Z,0
2016-09-04T03:26:50.001Z,0
2016-09-04T03:27:50.002Z,0
2016-09-04T03:28:50.005Z,0
2016-09-04T03:29:50.008Z,0
2016-09-04T03:30:50.017Z,0
2016-09-04T03:31:50.006Z,0
2016-09-04T03:32:50.011Z,0
2016-09-04T03:33:50.007Z,0
2016-09-04T03:34:50.012Z,0
2016-09-04T03:35:50.028Z,0
2016-09-04T03:36:50.015Z,0
2016-09-04T03:37:50.018Z,0
2016-09-04T03:38:50.030Z,0
2016-09-04T03:39:50.025Z,0
2016-09-04T03:40:50.045Z,0
2016-09-04T03:41:50.033Z,0
2016-09-04T03:42:50.023Z,0
2016-09-04T03:43:50.035Z,0
2016-09-04T03:44:50.042Z,0
2016-09-04T03:45:50.039Z,0
2016-09-04T03:46:50.038Z,0
2016-09-04T03:47:50.028Z,0
2016-09-04T03:48:50.037Z,0
2016-09-04T03:49:50.740Z,0
2016-09-04T03:50:50.062Z,0
2016-09-04T03:51:50.036Z,0
2016-09-04T03:52:50.030Z,0
2016-09-04T03:53:50.049Z,0
2016-09-04T03:54:50.750Z,0
2016-09-04T03:55:50.052Z,0
2016-09-04T03:56:50.055Z,0
2016-09-04T03:57:50.069Z,0
2016-09-04T03:58:50.051Z,0
2016-09-04T03:59:50.068Z,0
2016-09-04T04:00:50.073Z,0
2016-09-04T04:01:50.052Z,0
2016-09-04T04:02:50.048Z,0
2016-09-04T04:03:50.049Z,0
2016-09-04T04:04:50.148Z,0
2016-09-04T04:05:50.057Z,0
2016-09-04T04:06:50.064Z,0
2016-09-04T04:07:50.055Z,0
2016-09-04T04:08:50.056Z,0
2016-09-04T04:09:50.054Z,0
2016-09-04T04:10:50.064Z,0
2016-09-04T04:11:50.060Z,0
2016-09-04T04:12:50.056Z,4
2016-09-04T04:13:50.060Z,4
2016-09-04T04:14:50.067Z,4
2016-09-04T04:15:50.086Z,0
2016-09-04T04:16:50.061Z,4
2016-09-04T04:17:50.062Z,4
2016-09-04T04:18:50.065Z,4
2016-09-04T04:19:50.081Z,4
2016-09-04T04:20:50.073Z,4
2016-09-04T04:21:50.080Z,8
2016-09-04T04:22:50.068Z,8
2016-09-04T04:23:50.790Z,12
2016-09-04T04:24:50.080Z,12
2016-09-04T04:25:50.079Z,12
2016-09-04T04:26:50.129Z,16
2016-09-04T04:27:50.073Z,20
2016-09-04T04:28:50.082Z,20
2016-09-04T04:29:50.082Z,28
2016-09-04T04:30:50.094Z,32
2016-09-04T04:31:50.087Z,36
2016-09-04T04:32:50.088Z,40
2016-09-04T04:33:50.087Z,52
2016-09-04T04:34:50.089Z,56
2016-09-04T04:35:50.101Z,68
2016-09-04T04:36:50.088Z,80
2016-09-04T04:37:50.088Z,92
2016-09-04T04:38:50.093Z,100
2016-09-04T04:39:50.078Z,112
2016-09-04T04:40:50.104Z,120
2016-09-04T04:41:50.085Z,132
2016-09-04T04:42:50.082Z,144
2016-09-04T04:43:50.101Z,156
2016-09-04T04:44:50.091Z,176
2016-09-04T04:45:50.092Z,188
2016-09-04T04:46:50.094Z,208
2016-09-04T04:47:50.091Z,228
2016-09-04T04:48:50.104Z,256
2016-09-04T04:49:50.806Z,288
2016-09-04T04:50:50.095Z,320
2016-09-04T04:51:50.099Z,356
2016-09-04T04:52:50.094Z,392
2016-09-04T04:53:50.096Z,424
2016-09-04T04:54:50.093Z,456
2016-09-04T04:55:50.108Z,488
2016-09-04T04:56:50.095Z,524
2016-09-04T04:57:50.097Z,560
2016-09-04T04:58:50.092Z,600
2016-09-04T04:59:50.108Z,636
2016-09-04T05:00:50.105Z,668
2016-09-04T05:01:50.094Z,696
2016-09-04T05:02:50.101Z,736
2016-09-04T05:03:50.104Z,776
2016-09-04T05:04:50.099Z,808
2016-09-04T05:05:50.119Z,828
2016-09-04T05:06:50.099Z,844
2016-09-04T05:07:50.112Z,872
2016-09-04T05:08:50.112Z,908
2016-09-04T05:09:50.099Z,960
2016-09-04T05:10:50.105Z,1052
2016-09-04T05:11:50.103Z,1168
2016-09-04T05:12:50.103Z,1292
2016-09-04T05:13:50.110Z,1472
2016-09-04T05:14:50.105Z,1448
2016-09-04T05:15:50.109Z,1188
2016-09-04T05:16:50.107Z,1028
2016-09-04T05:17:50.106Z,1036
2016-09-04T05:18:50.111Z,1052
2016-09-04T05:19:50.107Z,1072
2016-09-04T05:20:50.116Z,1132
2016-09-04T05:21:50.117Z,1248
2016-09-04T05:22:50.111Z,1300
2016-09-04T05:23:50.113Z,1368
2016-09-04T05:24:50.159Z,1304
2016-09-04T05:25:50.122Z,1272
2016-09-04T05:26:50.116Z,1332
2016-09-04T05:27:50.115Z,1340
2016-09-04T05:28:50.119Z,1268
2016-09-04T05:29:50.120Z,1232
2016-09-04T05:30:50.131Z,1268
2016-09-04T05:31:50.118Z,1324
2016-09-04T05:32:50.126Z,1312
2016-09-04T05:33:50.124Z,1288
2016-09-04T05:34:50.124Z,1316
2016-09-04T05:35:50.129Z,1376
2016-09-04T05:36:50.130Z,1468
2016-09-04T05:37:50.144Z,1600
2016-09-04T05:38:50.131Z,1628
2016-09-04T05:39:50.134Z,1676
2016-09-04T05:40:50.141Z,1760
2016-09-04T05:41:50.130Z,1864
2016-09-04T05:42:50.131Z,1996
2016-09-04T05:43:50.147Z,2132
2016-09-04T05:44:50.136Z,2276
2016-09-04T05:45:50.150Z,2416
2016-09-04T05:46:50.149Z,2544
2016-09-04T05:47:50.152Z,2664
2016-09-04T05:48:50.152Z,2764
2016-09-04T05:49:50.157Z,2864
2016-09-04T05:50:50.227Z,2956
2016-09-04T05:51:50.153Z,3048
2016-09-04T05:52:50.156Z,3164
2016-09-04T05:53:50.154Z,3220
2016-09-04T05:54:50.154Z,3344
2016-09-04T05:55:50.175Z,3480
2016-09-04T05:56:50.175Z,3608
2016-09-04T05:57:50.160Z,3708
2016-09-04T05:58:50.157Z,3788
2016-09-04T05:59:50.163Z,3876
2016-09-04T06:00:50.171Z,3992
2016-09-04T06:01:50.157Z,4136
2016-09-04T06:02:50.165Z,4172
2016-09-04T06:03:50.876Z,4316
2016-09-04T06:04:50.418Z,4392
2016-09-04T06:05:50.261Z,4428
2016-09-04T06:06:50.173Z,4696
2016-09-04T06:07:50.174Z,4828
2016-09-04T06:08:50.170Z,4764
2016-09-04T06:09:50.174Z,4904
2016-09-04T06:10:50.188Z,4940
2016-09-04T06:11:50.181Z,4972
2016-09-04T06:12:50.176Z,4892
2016-09-04T06:13:50.178Z,5216
2016-09-04T06:14:50.179Z,4956
2016-09-04T06:15:50.184Z,4928
2016-09-04T06:16:50.184Z,4876
2016-09-04T06:17:50.190Z,4932
2016-09-04T06:18:50.187Z,4956
2016-09-04T06:19:50.189Z,4980
2016-09-04T06:20:50.209Z,4936
2016-09-04T06:21:50.210Z,4944
2016-09-04T06:22:50.200Z,4916
2016-09-04T06:23:50.192Z,4936
2016-09-04T06:24:50.196Z,5208
2016-09-04T06:25:50.220Z,5752
2016-09-04T06:26:50.212Z,5664
2016-09-04T06:27:50.210Z,5628
2016-09-04T06:28:50.207Z,5092
2016-09-04T06:29:50.209Z,4868
2016-09-04T06:30:50.225Z,5016
2016-09-04T06:31:50.208Z,4972
2016-09-04T06:32:50.214Z,5204
2016-09-04T06:33:50.224Z,5924
2016-09-04T06:34:50.221Z,7696
2016-09-04T06:35:50.230Z,7660
2016-09-04T06:36:50.933Z,7556
2016-09-04T06:37:50.259Z,6632
2016-09-04T06:38:50.230Z,5036
2016-09-04T06:39:50.236Z,4684
2016-09-04T06:40:50.240Z,4708
2016-09-04T06:41:50.239Z,4372
2016-09-04T06:42:50.237Z,4300
2016-09-04T06:43:50.244Z,4132
2016-09-04T06:44:50.248Z,4052
2016-09-04T06:45:50.282Z,4012
2016-09-04T06:46:50.254Z,3992
2016-09-04T06:47:50.272Z,4020
2016-09-04T06:48:50.275Z,4064
2016-09-04T06:49:50.273Z,4128
2016-09-04T06:50:50.278Z,4156
2016-09-04T06:51:50.275Z,4196
2016-09-04T06:52:50.272Z,4168
2016-09-04T06:53:50.271Z,4168
2016-09-04T06:54:50.285Z,4244
2016-09-04T06:55:50.289Z,4328
2016-09-04T06:56:50.278Z,4364
2016-09-04T06:57:50.995Z,4372
2016-09-04T06:58:50.282Z,4432
2016-09-04T06:59:50.287Z,4484
2016-09-04T07:00:50.295Z,4536
2016-09-04T07:01:50.291Z,4584
2016-09-04T07:02:50.294Z,4644
2016-09-04T07:03:50.298Z,4708
2016-09-04T07:04:51.068Z,4780
2016-09-04T07:05:50.311Z,4856
2016-09-04T07:06:51.014Z,4940
2016-09-04T07:07:51.015Z,5028
2016-09-04T07:08:50.308Z,5108
2016-09-04T07:09:50.315Z,5180
2016-09-04T07:10:50.326Z,5224
2016-09-04T07:11:50.321Z,5256
2016-09-04T07:12:50.315Z,5280
2016-09-04T07:13:50.325Z,5308
2016-09-04T07:14:50.342Z,5356
2016-09-04T07:15:50.328Z,5360
2016-09-04T07:16:50.360Z,5360
2016-09-04T07:17:50.349Z,5320
2016-09-04T07:18:50.362Z,5328
2016-09-04T07:19:50.350Z,5388
2016-09-04T07:20:50.355Z,5496
2016-09-04T07:21:50.348Z,5580
2016-09-04T07:22:50.356Z,5700
2016-09-04T07:23:51.062Z,5796
2016-09-04T07:24:50.352Z,5964
2016-09-04T07:25:50.433Z,6140
2016-09-04T07:26:50.369Z,6284
2016-09-04T07:27:50.366Z,6424
2016-09-04T07:28:50.362Z,6660
2016-09-04T07:29:50.368Z,7140
2016-09-04T07:30:50.455Z,7688
2016-09-04T07:31:50.367Z,8456
2016-09-04T07:32:50.372Z,7252
2016-09-04T07:33:50.371Z,8852
2016-09-04T07:34:50.383Z,7724
2016-09-04T07:35:50.391Z,7188
2016-09-04T07:36:50.380Z,7208
2016-09-04T07:37:50.389Z,6880
2016-09-04T07:38:50.389Z,6452
2016-09-04T07:39:50.390Z,6036
2016-09-04T07:40:50.429Z,5616
2016-09-04T07:41:50.400Z,5264
2016-09-04T07:42:50.430Z,5000
2016-09-04T07:43:50.421Z,4828
2016-09-04T07:44:50.418Z,4720
2016-09-04T07:45:50.434Z,4660
2016-09-04T07:46:50.431Z,4572
2016-09-04T07:47:50.434Z,4524
2016-09-04T07:48:50.437Z,4632
2016-09-04T07:49:50.433Z,4872
2016-09-04T07:50:50.446Z,5176
2016-09-04T07:51:50.449Z,5460
2016-09-04T07:52:50.439Z,5616
2016-09-04T07:53:50.447Z,5520
2016-09-04T07:54:50.444Z,5172
2016-09-04T07:55:50.446Z,4684
2016-09-04T07:56:50.447Z,4144
2016-09-04T07:57:50.446Z,3648
2016-09-04T07:58:50.455Z,3256
2016-09-04T07:59:50.453Z,3004
2016-09-04T08:00:50.463Z,2892
2016-09-04T08:01:50.466Z,2880
2016-09-04T08:02:50.465Z,2900
2016-09-04T08:03:50.468Z,2964
2016-09-04T08:04:50.475Z,3032
2016-09-04T08:05:50.477Z,3116
2016-09-04T08:06:50.481Z,3280
2016-09-04T08:07:50.478Z,3520
2016-09-04T08:08:50.487Z,3840
2016-09-04T08:09:50.501Z,4232
2016-09-04T08:10:50.499Z,4648
2016-09-04T08:11:50.494Z,5024
2016-09-04T08:12:50.495Z,5332
2016-09-04T08:13:50.514Z,5588
2016-09-04T08:14:51.206Z,5732
2016-09-04T08:15:50.516Z,5748
2016-09-04T08:16:50.515Z,5624
2016-09-04T08:17:50.512Z,5472
2016-09-04T08:18:50.514Z,5360
2016-09-04T08:19:50.517Z,5288
2016-09-04T08:20:50.520Z,5232
2016-09-04T08:21:50.521Z,5220
2016-09-04T08:22:50.533Z,5372
2016-09-04T08:23:50.527Z,5596
2016-09-04T08:24:50.524Z,5820
2016-09-04T08:25:50.528Z,6052
2016-09-04T08:26:50.568Z,6284
2016-09-04T08:27:50.532Z,6548
2016-09-04T08:28:50.548Z,6736
2016-09-04T08:29:50.574Z,6920
2016-09-04T08:30:50.544Z,7116
2016-09-04T08:31:50.564Z,7320
2016-09-04T08:32:50.552Z,7540
2016-09-04T08:33:51.271Z,7720
2016-09-04T08:34:50.564Z,7876
2016-09-04T08:35:50.567Z,8108
2016-09-04T08:36:50.564Z,8360
2016-09-04T08:37:50.570Z,8616
2016-09-04T08:38:50.569Z,8924
2016-09-04T08:39:50.568Z,9292
2016-09-04T08:40:50.574Z,9848
2016-09-04T08:41:50.576Z,10812
2016-09-04T08:42:50.589Z,10708
2016-09-04T08:43:50.587Z,10444
2016-09-04T08:44:50.586Z,10368
2016-09-04T08:45:50.589Z,9916
2016-09-04T08:46:50.602Z,9616
2016-09-04T08:47:50.601Z,9308
2016-09-04T08:48:50.616Z,9132
2016-09-04T08:49:50.620Z,9056
2016-09-04T08:50:50.618Z,8912
2016-09-04T08:51:50.621Z,8744
2016-09-04T08:52:50.624Z,8556
2016-09-04T08:53:50.622Z,8156
2016-09-04T08:54:50.625Z,7820
2016-09-04T08:55:50.627Z,7612
2016-09-04T08:56:50.631Z,7576
2016-09-04T08:57:50.641Z,7636
2016-09-04T08:58:50.639Z,7768
2016-09-04T08:59:50.646Z,7732
2016-09-04T09:00:50.858Z,7552
2016-09-04T09:01:50.654Z,7288
2016-09-04T09:02:50.658Z,6848
2016-09-04T09:03:50.670Z,6380
2016-09-04T09:04:50.720Z,5916
2016-09-04T09:05:50.675Z,5524
2016-09-04T09:06:50.668Z,5148
2016-09-04T09:07:50.677Z,4844
2016-09-04T09:08:50.681Z,4616
2016-09-04T09:09:50.705Z,4348
2016-09-04T09:10:50.690Z,4092
2016-09-04T09:11:50.700Z,3824
2016-09-04T09:12:50.696Z,3560
2016-09-04T09:13:50.702Z,3364
2016-09-04T09:14:50.716Z,3348
2016-09-04T09:15:51.414Z,3448
2016-09-04T09:16:50.723Z,3604
2016-09-04T09:17:50.718Z,3804
2016-09-04T09:18:50.730Z,3916
2016-09-04T09:19:50.723Z,3884
2016-09-04T09:20:50.725Z,3844
2016-09-04T09:21:50.739Z,3864
2016-09-04T09:22:50.736Z,3860
2016-09-04T09:23:50.755Z,3844
2016-09-04T09:24:50.761Z,3856
2016-09-04T09:25:50.744Z,3880
2016-09-04T09:26:50.746Z,3880
2016-09-04T09:27:50.755Z,3820
2016-09-04T09:28:51.464Z,3744
2016-09-04T09:29:50.761Z,3620
2016-09-04T09:30:50.769Z,3460
2016-09-04T09:31:50.788Z,3308
2016-09-04T09:32:51.474Z,3184
2016-09-04T09:33:50.784Z,3104
2016-09-04T09:34:50.786Z,3080
2016-09-04T09:35:50.787Z,3076
2016-09-04T09:36:50.786Z,3020
2016-09-04T09:37:50.792Z,2928
2016-09-04T09:38:50.791Z,2880
2016-09-04T09:39:50.803Z,2900
2016-09-04T09:40:50.817Z,2988
2016-09-04T09:41:50.801Z,3088
2016-09-04T09:42:50.807Z,3156
2016-09-04T09:43:51.517Z,3212
2016-09-04T09:44:50.816Z,3260
2016-09-04T09:45:50.820Z,3332
2016-09-04T09:46:50.823Z,3484
2016-09-04T09:47:50.854Z,3664
2016-09-04T09:48:50.835Z,3872
2016-09-04T09:49:50.834Z,4104
2016-09-04T09:50:50.844Z,4324
2016-09-04T09:51:50.838Z,4520
2016-09-04T09:52:50.841Z,4668
2016-09-04T09:53:50.850Z,4748
2016-09-04T09:54:50.855Z,4816
2016-09-04T09:55:50.874Z,4884
2016-09-04T09:56:50.861Z,5044
2016-09-04T09:57:50.864Z,5320
2016-09-04T09:58:50.869Z,5668
2016-09-04T09:59:50.885Z,5996
2016-09-04T10:00:50.872Z,6152
2016-09-04T10:01:50.899Z,6140
2016-09-04T10:02:50.886Z,6132
2016-09-04T10:03:50.884Z,6188
2016-09-04T10:04:51.035Z,6296
2016-09-04T10:05:50.890Z,6404
2016-09-04T10:06:51.098Z,6424
2016-09-04T10:07:50.896Z,6260
2016-09-04T10:08:50.900Z,6072
2016-09-04T10:09:50.899Z,5932
2016-09-04T10:10:50.911Z,5824
2016-09-04T10:11:50.909Z,5672
2016-09-04T10:12:50.910Z,5512
2016-09-04T10:13:50.918Z,5328
2016-09-04T10:14:50.920Z,5116
2016-09-04T10:15:50.934Z,4932
2016-09-04T10:16:51.648Z,4776
2016-09-04T10:17:50.938Z,4588
2016-09-04T10:18:50.937Z,4452
2016-09-04T10:19:50.939Z,4368
2016-09-04T10:20:50.940Z,4368
2016-09-04T10:21:50.944Z,4376
2016-09-04T10:22:50.968Z,4360
2016-09-04T10:23:50.970Z,4296
2016-09-04T10:24:50.965Z,4200
2016-09-04T10:25:50.969Z,4048
2016-09-04T10:26:50.966Z,3908
2016-09-04T10:27:50.981Z,3856
2016-09-04T10:28:50.972Z,3900
2016-09-04T10:29:50.973Z,3988
2016-09-04T10:30:51.044Z,4096
2016-09-04T10:31:50.976Z,4260
2016-09-04T10:32:50.982Z,4536
2016-09-04T10:33:50.991Z,4788
2016-09-04T10:34:50.998Z,5020
2016-09-04T10:35:51.713Z,5276
2016-09-04T10:36:51.002Z,5476
2016-09-04T10:37:51.002Z,5748
2016-09-04T10:38:51.003Z,6196
2016-09-04T10:39:51.005Z,6744
2016-09-04T10:40:51.014Z,7276
2016-09-04T10:41:51.013Z,7676
2016-09-04T10:42:51.017Z,7916
2016-09-04T10:43:51.022Z,8116
2016-09-04T10:44:51.730Z,8236
2016-09-04T10:45:51.064Z,8484
2016-09-04T10:46:51.045Z,8632
2016-09-04T10:47:51.039Z,8556
2016-09-04T10:48:51.054Z,8344
2016-09-04T10:49:51.052Z,8128
2016-09-04T10:50:51.042Z,7928
2016-09-04T10:51:51.053Z,7716
2016-09-04T10:52:51.049Z,7536
2016-09-04T10:53:51.063Z,7448
2016-09-04T10:54:51.055Z,7380
2016-09-04T10:55:51.058Z,7276
2016-09-04T10:56:51.778Z,7096
2016-09-04T10:57:51.067Z,6848
2016-09-04T10:58:51.796Z,6600
2016-09-04T10:59:51.078Z,6444
2016-09-04T11:00:51.082Z,6288
2016-09-04T11:01:51.791Z,6024
2016-09-04T11:02:51.089Z,5756
2016-09-04T11:03:51.087Z,5696
2016-09-04T11:04:51.091Z,5984
2016-09-04T11:05:51.818Z,6200
2016-09-04T11:06:51.113Z,6308
2016-09-04T11:07:51.109Z,6344
2016-09-04T11:08:51.109Z,6484
2016-09-04T11:09:51.315Z,6596
2016-09-04T11:10:51.113Z,6672
2016-09-04T11:11:51.838Z,6768
2016-09-04T11:12:51.123Z,6896
2016-09-04T11:13:51.128Z,7052
2016-09-04T11:14:51.129Z,7192
2016-09-04T11:15:51.146Z,7356
2016-09-04T11:16:51.154Z,7512
2016-09-04T11:17:51.143Z,7756
2016-09-04T11:18:51.148Z,7828
2016-09-04T11:19:51.147Z,7908
2016-09-04T11:20:51.147Z,7952
2016-09-04T11:21:51.150Z,7936
2016-09-04T11:22:51.155Z,7668
2016-09-04T11:23:51.174Z,7424
2016-09-04T11:24:51.171Z,7348
2016-09-04T11:25:51.170Z,7284
2016-09-04T11:26:51.183Z,7160
2016-09-04T11:27:51.178Z,7016
2016-09-04T11:28:51.208Z,6984
2016-09-04T11:29:51.207Z,6980
2016-09-04T11:30:51.194Z,7088
2016-09-04T11:31:51.199Z,7556
2016-09-04T11:32:51.913Z,7984
2016-09-04T11:33:51.214Z,8244
2016-09-04T11:34:51.218Z,8560
2016-09-04T11:35:51.210Z,8700
2016-09-04T11:36:51.216Z,8652
2016-09-04T11:37:51.218Z,8512
2016-09-04T11:38:51.230Z,8604
2016-09-04T11:39:51.235Z,8856
2016-09-04T11:40:51.237Z,9076
2016-09-04T11:41:51.237Z,9284
2016-09-04T11:42:51.953Z,9412
2016-09-04T11:43:51.253Z,9500
2016-09-04T11:44:51.250Z,9520
2016-09-04T11:45:51.287Z,9472
2016-09-04T11:46:51.253Z,9340
2016-09-04T11:47:51.261Z,9268
2016-09-04T11:48:51.271Z,9292
2016-09-04T11:49:51.290Z,9352
2016-09-04T11:50:51.290Z,9432
2016-09-04T11:51:51.285Z,9672
2016-09-04T11:52:51.283Z,10012
2016-09-04T11:53:51.284Z,10448
2016-09-04T11:54:51.292Z,10828
2016-09-04T11:55:51.304Z,11016
2016-09-04T11:56:51.303Z,10972
2016-09-04T11:57:51.309Z,10692
2016-09-04T11:58:51.314Z,10456
2016-09-04T11:59:51.315Z,10476
2016-09-04T12:00:51.324Z,10736
2016-09-04T12:01:51.431Z,11124
2016-09-04T12:02:51.325Z,11548
2016-09-04T12:03:51.333Z,11884
2016-09-04T12:04:51.400Z,12212
2016-09-04T12:05:51.342Z,12456
2016-09-04T12:06:51.370Z,12588
2016-09-04T12:07:51.350Z,12632
2016-09-04T12:08:51.370Z,12536
2016-09-04T12:09:51.375Z,12384
2016-09-04T12:10:51.368Z,12156
2016-09-04T12:11:51.385Z,11832
2016-09-04T12:12:51.374Z,11484
2016-09-04T12:13:51.371Z,11120
2016-09-04T12:14:51.385Z,10832
2016-09-04T12:15:51.386Z,10660
2016-09-04T12:16:51.395Z,10548
2016-09-04T12:17:51.416Z,10512
2016-09-04T12:18:51.407Z,10544
2016-09-04T12:19:51.411Z,10652
2016-09-04T12:20:51.408Z,10776
2016-09-04T12:21:51.434Z,10896
2016-09-04T12:22:51.438Z,11008
2016-09-04T12:23:51.437Z,11088
2016-09-04T12:24:51.437Z,11084
2016-09-04T12:25:51.446Z,11024
2016-09-04T12:26:51.464Z,10924
2016-09-04T12:27:51.448Z,10792
2016-09-04T12:28:51.454Z,10592
2016-09-04T12:29:51.455Z,10328
2016-09-04T12:30:51.459Z,9996
2016-09-04T12:31:51.466Z,9724
2016-09-04T12:32:51.501Z,9576
2016-09-04T12:33:51.480Z,9520
2016-09-04T12:34:51.501Z,9532
2016-09-04T12:35:52.205Z,9512
2016-09-04T12:36:52.228Z,9520
2016-09-04T12:37:51.507Z,9584
2016-09-04T12:38:51.500Z,9540
2016-09-04T12:39:51.515Z,9428
2016-09-04T12:40:51.518Z,9308
2016-09-04T12:41:51.611Z,9168
2016-09-04T12:42:51.557Z,8988
2016-09-04T12:43:51.530Z,8844
2016-09-04T12:44:51.542Z,8820
2016-09-04T12:45:51.543Z,8860
2016-09-04T12:46:51.548Z,8884
2016-09-04T12:47:51.572Z,8936
2016-09-04T12:48:51.555Z,8944
2016-09-04T12:49:51.559Z,8960
2016-09-04T12:50:51.556Z,9124
2016-09-04T12:51:51.565Z,9408
2016-09-04T12:52:51.570Z,9508
2016-09-04T12:53:51.590Z,9372
2016-09-04T12:54:51.581Z,9240
2016-09-04T12:55:51.590Z,9172
2016-09-04T12:56:51.597Z,9128
2016-09-04T12:57:51.609Z,9124
2016-09-04T12:58:51.595Z,9060
2016-09-04T12:59:51.601Z,8932
2016-09-04T13:00:51.610Z,8704
2016-09-04T13:01:51.610Z,8548
2016-09-04T13:02:51.618Z,8508
2016-09-04T13:03:51.621Z,8584
2016-09-04T13:04:51.831Z,8680
2016-09-04T13:05:51.641Z,8768
2016-09-04T13:06:51.642Z,8860
2016-09-04T13:07:51.643Z,8852
2016-09-04T13:08:51.648Z,8872
2016-09-04T13:09:51.646Z,8808
2016-09-04T13:10:51.685Z,8672
2016-09-04T13:11:51.689Z,8480
2016-09-04T13:12:51.669Z,8516
2016-09-04T13:13:51.874Z,8712
2016-09-04T13:14:52.734Z,8768
2016-09-04T13:15:51.688Z,8712
2016-09-04T13:16:51.875Z,8660
2016-09-04T13:17:51.693Z,8608
2016-09-04T13:18:51.706Z,8524
2016-09-04T13:19:51.697Z,8384
2016-09-04T13:20:51.716Z,8216
2016-09-04T13:21:51.714Z,7956
2016-09-04T13:22:51.712Z,7892
2016-09-04T13:23:51.717Z,7964
2016-09-04T13:24:51.718Z,7828
2016-09-04T13:25:51.733Z,7856
2016-09-04T13:26:51.737Z,8084
2016-09-04T13:27:52.472Z,8148
2016-09-04T13:28:51.738Z,8300
2016-09-04T13:29:51.763Z,8400
2016-09-04T13:30:51.752Z,8368
2016-09-04T13:31:51.753Z,8336
2016-09-04T13:32:51.759Z,8204
2016-09-04T13:33:51.771Z,8064
2016-09-04T13:34:51.778Z,7960
2016-09-04T13:35:51.779Z,8036
2016-09-04T13:36:51.778Z,8116
2016-09-04T13:37:51.787Z,8124
2016-09-04T13:38:51.795Z,8124
2016-09-04T13:39:52.510Z,7964
2016-09-04T13:40:51.829Z,7788
2016-09-04T13:41:51.818Z,7572
2016-09-04T13:42:52.037Z,7412
2016-09-04T13:43:51.831Z,7392
2016-09-04T13:44:51.825Z,7396
2016-09-04T13:45:51.861Z,7164